Alt de Villa Fontana, Puerto Rico
Current Conditions -  °F | °C
As of 8:56 AM on Friday 19 Dec 2014 (Local Time) from TJSJ Reporting Station
Scattered Clouds Scattered Clouds  
Wind Chill: 80°   Ceiling: Unl
Heat Index: 84°   Visibility: 10mi
Dew Point: 71°   Wind: 0mph
Humidity: 74%   Direction: NA
Pressure: 30.02"   Gusts: NA
Location:  18.4078°N, 65.9794°W
Report Text: TJSJ 191256Z 00000KT 10SM FEW035 SCT044 SCT080 27/22 A3002 RMK AO2 SLP163 T02670217
Loading
Personal Weather Stations






























Interactive Weather Map New forecast layout! Learn more

10-Day Weather Forecast

Advertisements
Track Severe Weather on mobile